Airport View

Enter AWOS ICAO identifier for current METAR.

ex. KFNL

KBIS 191952Z 14010KT 10SM CLR 29/13 A2985 RMK AO2 SLP100 T02890133

19 Aug 2019 20:26

Phone: 701-255-7563

Other Area AWOS: KY19 - K7L2 - KD57 - KHZE

TAF KBIS 191746Z 1918/2018 15009KT P6SM SKC FM200200 15009KT P6SM SCT250 FM200600 28005KT P6SM SCT250 FM201200 35011KT P6SM SCT150